createdAt,value
2022-11-05T00:04:03.982Z,9.39
2022-11-05T00:08:24.894Z,9.41
2022-11-05T00:12:44.861Z,9.39
2022-11-05T00:16:46.544Z,9.36
2022-11-05T00:20:47.833Z,9.35
2022-11-05T00:25:07.923Z,9.38
2022-11-05T00:29:09.203Z,9.37
2022-11-05T00:33:11.105Z,9.38
2022-11-05T00:37:12.681Z,9.37
2022-11-05T00:41:14.363Z,9.35
2022-11-05T00:45:16.084Z,9.35
2022-11-05T00:49:29.559Z,9.34
2022-11-05T00:53:30.839Z,9.29
2022-11-05T00:57:32.124Z,9.23
2022-11-05T01:01:33.545Z,9.20
2022-11-05T01:05:38.112Z,9.09
2022-11-05T01:09:39.362Z,9.01
2022-11-05T01:13:40.900Z,8.95
2022-11-05T01:17:42.142Z,8.92
2022-11-05T01:21:43.437Z,8.90
2022-11-05T01:25:44.880Z,8.84
2022-11-05T01:29:46.196Z,8.76
2022-11-05T01:33:47.627Z,8.68
2022-11-05T01:37:48.906Z,8.54
2022-11-05T01:41:50.256Z,8.41
2022-11-05T01:45:53.325Z,8.32
2022-11-05T01:49:55.157Z,8.24
2022-11-05T01:54:05.432Z,8.14
2022-11-05T01:58:09.360Z,8.08
2022-11-05T02:02:11.002Z,7.96
2022-11-05T02:06:13.627Z,7.90
2022-11-05T02:10:17.866Z,7.84
2022-11-05T02:14:19.303Z,7.77
2022-11-05T02:18:24.563Z,7.73
2022-11-05T02:22:38.037Z,7.64
2022-11-05T02:26:54.138Z,7.61
2022-11-05T02:31:01.102Z,7.62
2022-11-05T02:35:21.435Z,7.67
2022-11-05T02:39:37.769Z,7.68
2022-11-05T02:44:11.478Z,7.71
2022-11-05T02:48:12.796Z,7.73
2022-11-05T02:52:16.491Z,7.77
2022-11-05T02:56:20.755Z,7.79
2022-11-05T03:00:40.827Z,7.80
2022-11-05T03:04:42.318Z,7.78
2022-11-05T03:08:50.760Z,7.74
2022-11-05T03:13:04.254Z,7.68
2022-11-05T03:17:26.182Z,7.69
2022-11-05T03:21:42.739Z,7.75
2022-11-05T03:25:48.427Z,7.77
2022-11-05T03:29:51.954Z,7.79
2022-11-05T03:33:53.931Z,7.81
2022-11-05T03:37:58.350Z,7.78
2022-11-05T03:42:00.652Z,7.72
2022-11-05T03:46:04.804Z,7.63
2022-11-05T03:50:15.205Z,7.46
2022-11-05T03:54:16.547Z,7.34
2022-11-05T03:58:20.122Z,7.21
2022-11-05T04:02:23.516Z,7.21
2022-11-05T04:06:43.711Z,7.18
2022-11-05T04:11:04.982Z,7.01
2022-11-05T04:15:07.152Z,6.93
2022-11-05T04:19:08.414Z,6.92
2022-11-05T04:23:28.426Z,6.88
2022-11-05T04:27:29.753Z,6.76
2022-11-05T04:31:31.087Z,6.64
2022-11-05T04:35:34.327Z,6.50
2022-11-05T04:39:36.545Z,6.41
2022-11-05T04:43:37.863Z,6.32
2022-11-05T04:47:39.218Z,6.29
2022-11-05T04:51:40.494Z,6.19
2022-11-05T04:55:41.756Z,6.13
2022-11-05T04:59:43.522Z,6.07
2022-11-05T05:03:46.567Z,5.99
2022-11-05T05:07:47.853Z,5.91
2022-11-05T05:11:49.127Z,5.84
2022-11-05T05:15:50.443Z,5.83
2022-11-05T05:20:10.962Z,5.82
2022-11-05T05:24:13.659Z,5.80
2022-11-05T05:28:15.137Z,5.76
2022-11-05T05:32:16.372Z,5.75
2022-11-05T05:36:17.679Z,5.71
2022-11-05T05:40:18.995Z,5.68
2022-11-05T05:44:20.425Z,5.65
2022-11-05T05:48:21.687Z,5.62
2022-11-05T05:52:23.036Z,5.58
2022-11-05T05:56:24.299Z,5.51
2022-11-05T06:00:25.575Z,5.42
2022-11-05T06:04:26.884Z,5.35
2022-11-05T06:08:28.731Z,5.33
2022-11-05T06:12:30.025Z,5.24
2022-11-05T06:16:38.920Z,5.15
2022-11-05T06:20:40.253Z,5.13
2022-11-05T06:24:41.923Z,5.01
2022-11-05T06:28:43.699Z,4.99
2022-11-05T06:32:45.038Z,5.00
2022-11-05T06:36:46.362Z,4.92
2022-11-05T06:40:48.016Z,4.95
2022-11-05T06:44:49.310Z,4.90
2022-11-05T06:48:51.056Z,4.89
2022-11-05T06:52:59.346Z,4.89
2022-11-05T06:57:00.599Z,4.94
2022-11-05T07:01:07.760Z,4.97
2022-11-05T07:05:11.286Z,5.02
2022-11-05T07:09:12.578Z,5.05
2022-11-05T07:13:14.152Z,5.15
2022-11-05T07:17:17.363Z,5.22
2022-11-05T07:21:19.697Z,5.32
2022-11-05T07:25:20.946Z,5.45
2022-11-05T07:29:23.041Z,5.55
2022-11-05T07:52:37.972Z,6.44
2022-11-05T07:56:39.293Z,6.59
2022-11-05T08:00:40.743Z,6.78
2022-11-05T08:04:43.352Z,6.92
2022-11-05T08:08:45.551Z,7.11
2022-11-05T08:12:48.830Z,7.25
2022-11-05T08:16:50.127Z,7.50
2022-11-05T08:20:51.460Z,7.61
2022-11-05T08:24:53.225Z,7.76
2022-11-05T09:14:31.492Z,7.83
2022-11-05T09:18:33.549Z,7.83
2022-11-05T09:22:37.944Z,7.74
2022-11-05T09:26:43.765Z,7.81
2022-11-05T09:30:46.737Z,7.71
2022-11-05T09:34:49.097Z,7.78
2022-11-05T09:44:01.707Z,7.90
2022-11-05T09:53:35.854Z,7.97
2022-11-05T10:49:35.970Z,8.27
2022-11-05T10:53:41.134Z,8.25
2022-11-05T11:06:32.003Z,8.45
2022-11-05T11:10:40.211Z,8.52
2022-11-05T11:14:41.542Z,8.56
2022-11-05T11:18:44.049Z,8.75
2022-11-05T11:23:05.708Z,8.92
2022-11-05T11:27:15.608Z,8.92
2022-11-05T11:31:20.920Z,8.96
2022-11-05T11:35:24.243Z,8.94
2022-11-05T11:39:27.596Z,8.90
2022-11-05T11:43:30.916Z,8.82
2022-11-05T11:47:32.941Z,8.92
2022-11-05T11:51:49.677Z,8.96
2022-11-05T11:55:57.604Z,9.02
2022-11-05T12:00:14.634Z,9.01
2022-11-05T12:04:25.880Z,8.98
2022-11-05T12:08:27.290Z,9.07
2022-11-05T12:12:45.150Z,9.19
2022-11-05T12:17:22.354Z,9.31
2022-11-05T12:21:53.634Z,9.39
2022-11-05T12:26:05.376Z,9.50
2022-11-05T12:30:17.731Z,9.61
2022-11-05T12:34:29.493Z,9.61
2022-11-05T12:38:30.862Z,9.72
2022-11-05T12:42:42.505Z,9.81
2022-11-05T12:46:50.702Z,9.81
2022-11-05T12:51:11.783Z,9.92
2022-11-05T12:55:23.961Z,10.04
2022-11-05T12:59:25.357Z,10.07
2022-11-05T13:03:45.678Z,10.10
2022-11-05T13:07:56.569Z,10.32
2022-11-05T13:12:00.071Z,10.39
2022-11-05T13:16:04.573Z,10.27
2022-11-05T13:20:06.398Z,10.12
2022-11-05T13:24:27.124Z,10.03
2022-11-05T13:28:47.260Z,9.98
2022-11-05T13:32:54.829Z,9.99
2022-11-05T13:37:20.033Z,10.08
2022-11-05T13:41:40.561Z,10.13
2022-11-05T13:46:11.417Z,10.14
2022-11-05T13:50:25.052Z,10.06
2022-11-05T13:54:38.731Z,9.96
2022-11-05T13:59:03.393Z,9.87
2022-11-05T14:03:06.924Z,9.72
2022-11-05T14:07:15.811Z,9.60
2022-11-05T14:11:32.076Z,9.57
2022-11-05T14:15:33.620Z,9.58
2022-11-05T14:19:36.903Z,9.60
2022-11-05T14:23:40.054Z,9.61
2022-11-05T14:27:43.522Z,9.61
2022-11-05T14:36:21.854Z,9.64
2022-11-05T14:40:36.266Z,9.65
2022-11-05T14:44:55.380Z,9.64
2022-11-05T14:49:08.061Z,9.63
2022-11-05T14:53:29.781Z,9.66
2022-11-05T14:57:43.555Z,9.66
2022-11-05T15:01:45.033Z,9.71
2022-11-05T15:05:46.823Z,9.69
2022-11-05T15:09:54.307Z,9.72
2022-11-05T15:13:55.985Z,9.69
2022-11-05T15:17:58.301Z,9.66
2022-11-05T15:22:03.217Z,9.62
2022-11-05T15:26:12.484Z,9.54
2022-11-05T15:30:15.542Z,9.50
2022-11-05T15:34:17.066Z,9.45
2022-11-05T15:38:26.810Z,9.37
2022-11-05T15:42:28.188Z,9.30
2022-11-05T15:46:30.528Z,9.26
2022-11-05T15:50:32.097Z,9.16
2022-11-05T15:54:34.005Z,9.09
2022-11-05T15:58:38.491Z,9.00
2022-11-05T16:02:41.445Z,8.93
2022-11-05T16:06:45.064Z,8.87
2022-11-05T16:10:49.755Z,8.82
2022-11-05T16:15:07.516Z,8.75
2022-11-05T16:19:40.509Z,8.73
2022-11-05T16:23:46.228Z,8.61
2022-11-05T16:32:05.232Z,8.55
2022-11-05T16:36:07.991Z,8.48
2022-11-05T16:40:30.014Z,8.43
2022-11-05T16:44:33.745Z,8.35
2022-11-05T16:48:35.158Z,8.27
2022-11-05T16:52:37.024Z,8.08
2022-11-05T17:10:07.819Z,7.71
2022-11-05T17:14:12.442Z,7.64
2022-11-05T17:18:19.068Z,7.61
2022-11-05T17:22:21.101Z,7.61
2022-11-05T17:26:22.796Z,7.56
2022-11-05T17:30:24.678Z,7.51
2022-11-05T17:34:26.026Z,7.56
2022-11-05T17:38:27.267Z,7.56
2022-11-05T17:42:28.689Z,7.54
2022-11-05T17:46:29.958Z,7.52
2022-11-05T17:50:31.369Z,7.48
2022-11-05T17:54:32.621Z,7.50
2022-11-05T17:58:34.115Z,7.51
2022-11-05T18:02:35.534Z,7.54
2022-11-05T18:06:38.146Z,7.58
2022-11-05T18:10:40.496Z,7.60
2022-11-05T18:14:42.162Z,7.66
2022-11-05T18:18:43.628Z,7.63
2022-11-05T18:22:45.445Z,7.61
2022-11-05T18:26:46.750Z,7.58
2022-11-05T18:30:48.046Z,7.50
2022-11-05T18:34:49.494Z,7.45
2022-11-05T18:38:50.890Z,7.36
2022-11-05T18:42:52.187Z,7.25
2022-11-05T18:46:58.455Z,7.19
2022-11-05T18:51:02.069Z,7.12
2022-11-05T18:55:03.646Z,7.14
2022-11-05T18:59:30.468Z,7.18
2022-11-05T19:03:26.422Z,7.24
2022-11-05T19:07:27.819Z,7.20
2022-11-05T19:11:29.311Z,7.11
2022-11-05T19:15:30.741Z,7.09
2022-11-05T19:19:32.063Z,7.06
2022-11-05T19:23:33.855Z,7.04
2022-11-05T19:27:35.939Z,7.04
2022-11-05T19:31:37.263Z,7.05
2022-11-05T19:35:41.968Z,7.07
2022-11-05T19:39:43.794Z,7.09
2022-11-05T19:43:45.282Z,7.14
2022-11-05T19:47:46.578Z,7.16
2022-11-05T19:51:48.315Z,7.17
2022-11-05T19:55:49.656Z,7.22
2022-11-05T19:59:50.898Z,7.25
2022-11-05T20:03:53.778Z,7.28
2022-11-05T20:07:56.331Z,7.29
2022-11-05T20:11:57.816Z,7.27
2022-11-05T20:15:59.146Z,7.27
2022-11-05T20:20:00.536Z,7.24
2022-11-05T20:24:02.464Z,7.20
2022-11-05T20:28:04.118Z,7.18
2022-11-05T20:32:06.108Z,7.15
2022-11-05T20:36:09.075Z,7.12
2022-11-05T20:40:11.035Z,7.08
2022-11-05T20:44:12.541Z,7.02
2022-11-05T20:48:14.826Z,6.91
2022-11-05T20:52:17.191Z,6.85
2022-11-05T20:56:19.461Z,6.73
2022-11-05T21:00:20.903Z,6.65
2022-11-05T21:04:22.163Z,6.60
2022-11-05T21:08:23.903Z,6.49
2022-11-05T21:12:25.488Z,6.49
2022-11-05T21:16:26.908Z,6.51
2022-11-05T21:20:28.618Z,6.55
2022-11-05T21:24:30.193Z,6.60
2022-11-05T21:28:31.692Z,6.65
2022-11-05T21:32:33.056Z,6.69
2022-11-05T21:36:34.365Z,6.72
2022-11-05T21:40:35.674Z,6.72
2022-11-05T21:44:37.435Z,6.69
2022-11-05T21:48:39.210Z,6.68
2022-11-05T21:52:59.331Z,6.68
2022-11-05T21:57:19.466Z,6.64
2022-11-05T22:01:20.823Z,6.58
2022-11-05T22:05:22.196Z,6.55
2022-11-05T22:09:23.967Z,6.44
2022-11-05T22:13:25.223Z,6.41
2022-11-05T22:17:26.850Z,6.34
2022-11-05T22:21:28.142Z,6.31
2022-11-05T22:25:29.420Z,6.27
2022-11-05T22:29:30.833Z,6.23
2022-11-05T22:33:32.259Z,6.17
2022-11-05T22:37:33.515Z,6.13
2022-11-05T22:41:34.808Z,6.09
2022-11-05T22:45:36.601Z,5.94
2022-11-05T22:49:37.926Z,5.82
2022-11-05T22:53:39.932Z,5.78
2022-11-05T22:57:41.190Z,5.73
2022-11-05T23:01:43.989Z,5.65
2022-11-05T23:05:45.572Z,5.54
2022-11-05T23:10:05.600Z,5.46
2022-11-05T23:14:08.047Z,5.32
2022-11-05T23:18:27.893Z,5.21
2022-11-05T23:22:49.064Z,5.15
2022-11-05T23:26:50.312Z,5.08
2022-11-05T23:31:10.163Z,4.95
2022-11-05T23:35:11.912Z,4.91
2022-11-05T23:39:13.178Z,4.85
2022-11-05T23:43:33.156Z,4.81
2022-11-05T23:47:53.305Z,4.79
2022-11-05T23:51:54.641Z,4.76
2022-11-05T23:56:01.282Z,4.72
